Terminal Aerodrome Forecast
Issued by NWS

Home | Current Version | Previous Version | Text Only | Print | Product List | Glossary On
Versions: 1 2 3 4 5 6 7 8 9 10 11 12 13 14 15 16 17 18 19 20 21 22 23 24
000
FTUS45 KGJT 182335
TAFMTJ
TAF
KMTJ 182335Z 1900/1924 21026G32KT P6SM FEW200
      TEMPO 1900/1903 22025G40KT
     FM190300 19012G25KT P6SM FEW090 FEW200
     FM191000 20018G28KT P6SM -SHRASN FEW045 BKN070
     FM191800 22018G28KT P6SM -SHRA SCT050 BKN070=

USA.gov is the U.S. government's official web portal to all federal, state and local government web resources and services.